Greenfield Center, New York
Current Conditions -  °F | °C
As of 12:53 PM on Friday 28 Nov 2014 (Local Time) from KGFL Reporting Station
Overcast Overcast  
Wind Chill: 24°   Ceiling: 5000
Heat Index: 31°   Visibility: 10mi
Dew Point: 14°   Wind: 7mph
Humidity: 50%   Direction: 320°NW
Pressure: 30.1"   Gusts: NA
Location:  43.13°N, 73.85°W
Report Text: KGFL 281753Z AUTO 32006KT 10SM BKN050 OVC060 M01/M10 A3010 RMK AO2 WSHFT 1716 SLP203 I6000 T10061100 11006 21056 57009
Loading
Personal Weather Stations






























Interactive Weather Map New forecast layout! Learn more

10-Day Weather Forecast

Advertisements
Track Severe Weather on mobile